createdAt,value
2023-04-12T00:02:27.807Z,98706.63
2023-04-12T00:04:57.917Z,98715.31
2023-04-12T00:07:25.961Z,98706.84
2023-04-12T00:09:53.872Z,98710.84
2023-04-12T00:12:22.228Z,98711.69
2023-04-12T00:14:50.101Z,98712.59
2023-04-12T00:17:19.570Z,98707.31
2023-04-12T00:19:50.176Z,98695.53
2023-04-12T00:22:18.177Z,98710.19
2023-04-12T00:24:47.557Z,98711.97
2023-04-12T00:27:16.065Z,98712.00
2023-04-12T00:29:44.313Z,98722.44
2023-04-12T00:32:12.244Z,98719.87
2023-04-12T00:34:40.572Z,98719.78
2023-04-12T00:37:08.554Z,98722.25
2023-04-12T00:39:36.430Z,98709.31
2023-04-12T00:42:05.584Z,98703.28
2023-04-12T00:44:34.476Z,98713.72
2023-04-12T00:47:05.521Z,98712.06
2023-04-12T00:49:34.582Z,98710.22
2023-04-12T00:52:05.739Z,98703.47
2023-04-12T00:54:35.135Z,98705.09
2023-04-12T00:57:03.493Z,98706.06
2023-04-12T00:59:31.423Z,98706.91
2023-04-12T01:02:00.493Z,98709.56
2023-04-12T01:04:28.712Z,98710.41
2023-04-12T01:07:17.798Z,98696.66
2023-04-12T01:10:15.334Z,98693.13
2023-04-12T01:13:08.688Z,98688.00
2023-04-12T01:15:41.992Z,98693.06
2023-04-12T01:18:14.872Z,98709.53
2023-04-12T01:20:50.959Z,98705.28
2023-04-12T01:23:24.873Z,98704.34
2023-04-12T01:26:08.824Z,98707.88
2023-04-12T01:28:39.217Z,98713.87
2023-04-12T01:31:09.029Z,98715.50
2023-04-12T01:33:38.569Z,98720.75
2023-04-12T01:36:32.813Z,98718.22
2023-04-12T01:39:05.020Z,98727.72
2023-04-12T01:41:33.609Z,98714.75
2023-04-12T01:44:01.927Z,98718.19
2023-04-12T01:46:30.338Z,98715.53
2023-04-12T01:48:59.835Z,98720.66
2023-04-12T01:51:40.694Z,98715.50
2023-04-12T01:54:14.226Z,98721.59
2023-04-12T01:56:47.901Z,98718.03
2023-04-12T01:59:16.636Z,98715.53
2023-04-12T02:01:47.220Z,98715.63
2023-04-12T02:04:16.821Z,98713.91
2023-04-12T02:06:46.478Z,98712.19
2023-04-12T02:09:14.423Z,98709.59
2023-04-12T02:11:46.887Z,98703.56
2023-04-12T02:14:15.602Z,98701.84
2023-04-12T02:16:46.081Z,98703.56
2023-04-12T02:19:14.344Z,98698.41
2023-04-12T02:21:44.265Z,98693.28
2023-04-12T02:24:13.003Z,98693.25
2023-04-12T02:26:40.952Z,98690.66
2023-04-12T02:29:10.583Z,98688.00
2023-04-12T02:31:39.304Z,98693.25
2023-04-12T02:34:07.998Z,98696.72
2023-04-12T02:36:38.123Z,98701.91
2023-04-12T02:39:07.942Z,98699.28
2023-04-12T02:41:36.762Z,98704.47
2023-04-12T02:44:06.256Z,98704.44
2023-04-12T02:46:34.518Z,98700.19
2023-04-12T02:49:03.718Z,98700.16
2023-04-12T02:51:32.046Z,98695.88
2023-04-12T02:54:01.493Z,98698.44
2023-04-12T02:56:30.498Z,98689.84
2023-04-12T02:58:59.059Z,98687.25
2023-04-12T03:01:29.049Z,98686.38
2023-04-12T03:03:58.690Z,98682.94
2023-04-12T03:06:27.458Z,98670.06
2023-04-12T03:08:55.788Z,98670.06
2023-04-12T03:11:24.159Z,98664.91
2023-04-12T03:13:52.661Z,98664.03
2023-04-12T03:16:26.105Z,98663.19
2023-04-12T03:18:57.041Z,98661.47
2023-04-12T03:21:26.557Z,98667.47
2023-04-12T03:23:56.223Z,98662.31
2023-04-12T03:26:26.788Z,98648.53
2023-04-12T03:29:01.130Z,98659.69
2023-04-12T03:31:29.790Z,98648.53
2023-04-12T03:33:59.237Z,98651.09
2023-04-12T03:36:29.922Z,98648.44
2023-04-12T03:38:58.418Z,98644.13
2023-04-12T03:41:28.459Z,98651.09
2023-04-12T03:43:57.011Z,98661.38
2023-04-12T03:46:26.232Z,98654.44
2023-04-12T03:48:54.731Z,98664.84
2023-04-12T03:51:27.026Z,98657.97
2023-04-12T03:53:56.368Z,98640.78
2023-04-12T03:56:24.588Z,98643.34
2023-04-12T03:58:53.194Z,98645.03
2023-04-12T04:01:22.149Z,98634.81
2023-04-12T04:03:51.329Z,98629.63
2023-04-12T04:06:19.592Z,98639.91
2023-04-12T04:08:47.683Z,98633.06
2023-04-12T04:11:16.583Z,98639.81
2023-04-12T04:13:46.844Z,98639.06
2023-04-12T04:16:18.271Z,98638.09
2023-04-12T04:18:46.752Z,98635.59
2023-04-12T04:21:15.270Z,98636.47
2023-04-12T04:23:48.157Z,98633.03
2023-04-12T04:26:17.184Z,98633.88
2023-04-12T04:28:46.701Z,98641.53
2023-04-12T04:31:17.828Z,98637.34
2023-04-12T04:33:48.725Z,98634.72
2023-04-12T04:36:16.888Z,98636.44
2023-04-12T04:38:46.214Z,98632.19
2023-04-12T04:41:15.650Z,98635.66
2023-04-12T04:43:46.986Z,98637.34
2023-04-12T04:46:15.629Z,98627.66
2023-04-12T04:48:43.775Z,98637.84
2023-04-12T04:51:11.702Z,98648.38
2023-04-12T04:53:41.026Z,98642.38
2023-04-12T04:56:11.612Z,98634.34
2023-04-12T04:58:40.811Z,98633.81
2023-04-12T05:01:09.396Z,98630.03
2023-04-12T05:03:38.053Z,98629.44
2023-04-12T05:06:06.905Z,98638.53
2023-04-12T05:08:35.731Z,98638.88
2023-04-12T05:11:04.278Z,98648.78
2023-04-12T05:13:32.704Z,98643.53
2023-04-12T05:16:00.678Z,98652.87
2023-04-12T05:18:28.579Z,98646.78
2023-04-12T05:20:57.022Z,98642.84
2023-04-12T05:23:25.374Z,98650.38
2023-04-12T05:25:53.634Z,98646.97
2023-04-12T05:28:22.099Z,98648.03
2023-04-12T05:30:50.549Z,98650.22
2023-04-12T05:33:19.520Z,98654.94
2023-04-12T05:35:47.915Z,98647.16
2023-04-12T05:38:15.860Z,98644.53
2023-04-12T05:40:44.438Z,98650.13
2023-04-12T05:43:13.987Z,98644.97
2023-04-12T05:45:42.161Z,98639.44
2023-04-12T05:48:10.638Z,98646.09
2023-04-12T05:50:39.119Z,98652.13
2023-04-12T05:53:07.363Z,98646.88
2023-04-12T05:55:37.893Z,98649.12
2023-04-12T05:58:07.426Z,98645.19
2023-04-12T06:00:45.709Z,98651.81
2023-04-12T06:03:14.386Z,98652.72
2023-04-12T06:05:42.363Z,98653.56
2023-04-12T06:08:10.566Z,98656.81
2023-04-12T06:10:40.561Z,98655.22
2023-04-12T06:13:08.855Z,98647.22
2023-04-12T06:15:37.411Z,98647.91
2023-04-12T06:18:07.573Z,98652.56
2023-04-12T06:20:35.744Z,98646.47
2023-04-12T06:23:06.819Z,98644.53
2023-04-12T06:25:35.739Z,98647.97
2023-04-12T06:28:04.674Z,98645.25
2023-04-12T06:30:33.846Z,98653.25
2023-04-12T06:33:01.871Z,98651.84
2023-04-12T06:35:29.840Z,98644.59
2023-04-12T06:37:58.137Z,98653.16
2023-04-12T06:40:26.319Z,98646.28
2023-04-12T06:42:54.305Z,98649.97
2023-04-12T06:45:23.180Z,98644.47
2023-04-12T06:47:51.184Z,98651.91
2023-04-12T06:50:19.086Z,98653.44
2023-04-12T06:52:48.633Z,98658.47
2023-04-12T06:55:16.682Z,98659.75
2023-04-12T06:57:46.369Z,98657.69
2023-04-12T07:00:16.661Z,98665.97
2023-04-12T07:02:44.722Z,98668.69
2023-04-12T07:05:13.879Z,98663.59
2023-04-12T07:07:42.442Z,98670.00
2023-04-12T07:10:10.949Z,98678.47
2023-04-12T07:12:38.897Z,98677.88
2023-04-12T07:15:07.720Z,98670.84
2023-04-12T07:17:35.828Z,98663.00
2023-04-12T07:20:04.076Z,98670.53
2023-04-12T07:22:32.350Z,98662.78
2023-04-12T07:25:00.314Z,98671.66
2023-04-12T07:27:28.300Z,98653.47
2023-04-12T07:29:58.645Z,98663.00
2023-04-12T07:32:27.614Z,98656.81
2023-04-12T07:34:55.742Z,98648.78
2023-04-12T07:37:24.116Z,98652.22
2023-04-12T07:39:52.078Z,98655.78
2023-04-12T07:42:20.052Z,98651.66
2023-04-12T07:44:48.381Z,98652.31
2023-04-12T07:47:16.280Z,98640.50
2023-04-12T07:49:44.240Z,98649.66
2023-04-12T07:52:14.211Z,98644.37
2023-04-12T07:54:42.799Z,98642.28
2023-04-12T07:57:11.030Z,98637.34
2023-04-12T07:59:39.440Z,98640.81
2023-04-12T08:02:07.553Z,98643.47
2023-04-12T08:04:37.553Z,98627.13
2023-04-12T08:07:05.586Z,98631.59
2023-04-12T08:09:33.632Z,98635.22
2023-04-12T08:12:02.205Z,98631.53
2023-04-12T08:14:30.173Z,98639.38
2023-04-12T08:16:58.330Z,98627.56
2023-04-12T08:19:27.472Z,98639.81
2023-04-12T08:21:55.641Z,98640.56
2023-04-12T08:24:25.307Z,98640.88
2023-04-12T08:26:53.769Z,98634.94
2023-04-12T08:29:21.659Z,98635.75
2023-04-12T08:31:49.617Z,98633.19
2023-04-12T08:34:18.021Z,98647.78
2023-04-12T08:36:47.645Z,98633.31
2023-04-12T08:39:15.747Z,98628.13
2023-04-12T08:41:44.213Z,98632.38
2023-04-12T08:44:12.526Z,98621.78
2023-04-12T08:46:41.070Z,98619.53
2023-04-12T08:49:11.646Z,98623.69
2023-04-12T08:51:40.181Z,98622.69
2023-04-12T08:54:08.146Z,98625.94
2023-04-12T08:56:36.723Z,98612.38
2023-04-12T08:59:04.826Z,98612.00
2023-04-12T09:01:33.768Z,98613.66
2023-04-12T09:04:07.108Z,98619.94
2023-04-12T09:06:37.394Z,98611.72
2023-04-12T09:09:08.116Z,98615.44
2023-04-12T09:11:36.623Z,98611.78
2023-04-12T09:14:06.390Z,98625.59
2023-04-12T09:16:36.358Z,98619.41
2023-04-12T09:19:05.238Z,98608.00
2023-04-12T09:21:37.296Z,98608.25
2023-04-12T09:24:13.545Z,98604.22
2023-04-12T09:26:42.621Z,98613.47
2023-04-12T09:29:25.802Z,98606.25
2023-04-12T09:32:01.480Z,98612.00
2023-04-12T09:34:32.328Z,98614.84
2023-04-12T09:37:00.374Z,98604.78
2023-04-12T09:39:34.746Z,98608.81
2023-04-12T09:42:14.876Z,98597.28
2023-04-12T09:44:54.765Z,98602.16
2023-04-12T09:47:23.171Z,98604.47
2023-04-12T09:49:51.158Z,98585.56
2023-04-12T09:52:20.334Z,98585.34
2023-04-12T09:54:51.799Z,98588.34
2023-04-12T09:57:23.383Z,98582.25
2023-04-12T09:59:53.046Z,98567.16
2023-04-12T10:02:28.468Z,98572.16
2023-04-12T10:04:57.142Z,98573.00
2023-04-12T10:07:27.438Z,98587.56
2023-04-12T10:09:58.689Z,98590.34
2023-04-12T10:12:29.328Z,98591.56
2023-04-12T10:14:58.313Z,98588.56
2023-04-12T10:17:27.079Z,98593.44
2023-04-12T10:19:55.312Z,98582.97
2023-04-12T10:22:23.284Z,98577.25
2023-04-12T10:24:51.723Z,98579.09
2023-04-12T10:27:37.754Z,98547.53
2023-04-12T10:30:28.955Z,98573.84
2023-04-12T10:33:03.270Z,98588.94
2023-04-12T10:35:49.984Z,98585.44
2023-04-12T10:38:18.763Z,98588.09
2023-04-12T10:41:15.247Z,98576.56
2023-04-12T10:43:50.207Z,98584.72
2023-04-12T10:46:40.420Z,98571.69
2023-04-12T10:49:09.846Z,98561.09
2023-04-12T10:51:38.537Z,98567.72
2023-04-12T10:54:12.476Z,98559.53
2023-04-12T10:56:43.483Z,98549.62
2023-04-12T10:59:13.520Z,98557.25
2023-04-12T11:01:46.670Z,98549.41
2023-04-12T11:04:22.948Z,98539.72
2023-04-12T11:06:53.406Z,98546.94
2023-04-12T11:09:25.595Z,98540.91
2023-04-12T11:12:09.571Z,98554.50
2023-04-12T11:14:44.808Z,98550.38
2023-04-12T11:17:13.356Z,98536.47
2023-04-12T11:19:51.765Z,98530.84
2023-04-12T11:22:23.476Z,98531.50
2023-04-12T11:24:56.736Z,98530.63
2023-04-12T11:27:26.590Z,98528.03
2023-04-12T11:29:59.411Z,98530.69
2023-04-12T11:32:31.576Z,98531.16
2023-04-12T11:34:59.583Z,98525.44
2023-04-12T11:37:31.077Z,98527.47
2023-04-12T11:40:07.444Z,98528.69
2023-04-12T11:42:36.133Z,98530.13
2023-04-12T11:45:09.507Z,98516.28
2023-04-12T11:47:45.576Z,98522.44
2023-04-12T11:50:15.048Z,98520.41
2023-04-12T11:52:43.326Z,98517.06
2023-04-12T11:55:11.623Z,98518.56
2023-04-12T11:57:39.690Z,98508.38
2023-04-12T12:00:08.708Z,98512.34
2023-04-12T12:02:49.012Z,98513.66
2023-04-12T12:05:24.894Z,98505.63
2023-04-12T12:07:54.329Z,98496.50
2023-04-12T12:10:37.762Z,98500.50
2023-04-12T12:13:13.468Z,98506.19
2023-04-12T12:15:45.372Z,98494.84
2023-04-12T12:18:15.368Z,98495.81
2023-04-12T12:20:49.395Z,98486.84
2023-04-12T12:23:38.127Z,98482.69
2023-04-12T12:26:19.056Z,98474.41
2023-04-12T12:28:54.969Z,98478.94
2023-04-12T12:31:24.646Z,98474.13
2023-04-12T12:33:58.540Z,98476.72
2023-04-12T12:36:38.999Z,98470.50
2023-04-12T12:39:12.759Z,98468.09
2023-04-12T12:41:41.710Z,98471.84
2023-04-12T12:44:12.455Z,98466.75
2023-04-12T12:49:11.828Z,98459.25
2023-04-12T12:51:43.484Z,98451.91
2023-04-12T12:54:14.324Z,98456.03
2023-04-12T12:56:46.256Z,98454.72
2023-04-12T12:59:14.582Z,98449.28
2023-04-12T13:01:42.549Z,98457.88
2023-04-12T13:04:10.624Z,98459.53
2023-04-12T13:06:39.512Z,98449.56
2023-04-12T13:09:07.453Z,98445.81
2023-04-12T13:11:35.353Z,98444.69
2023-04-12T13:14:03.744Z,98436.75
2023-04-12T13:16:31.889Z,98437.87
2023-04-12T13:19:00.100Z,98437.72
2023-04-12T13:21:28.615Z,98432.63
2023-04-12T13:23:58.578Z,98428.44
2023-04-12T13:26:26.510Z,98428.09
2023-04-12T13:28:54.806Z,98431.41
2023-04-12T13:31:22.779Z,98429.13
2023-04-12T13:33:50.756Z,98418.63
2023-04-12T13:36:18.999Z,98419.59
2023-04-12T13:38:47.736Z,98416.78
2023-04-12T13:41:15.705Z,98418.44
2023-04-12T13:43:43.980Z,98415.72
2023-04-12T13:46:13.226Z,98406.78
2023-04-12T13:48:41.282Z,98409.75
2023-04-12T13:51:10.084Z,98401.09
2023-04-12T13:53:40.610Z,98393.59
2023-04-12T13:56:08.669Z,98396.88
2023-04-12T13:58:41.612Z,98400.28
2023-04-12T14:01:10.115Z,98408.13
2023-04-12T14:03:38.487Z,98401.88
2023-04-12T14:06:07.607Z,98402.94
2023-04-12T14:08:35.977Z,98400.97
2023-04-12T14:11:04.458Z,98399.31
2023-04-12T14:13:32.367Z,98398.56
2023-04-12T14:16:00.275Z,98393.59
2023-04-12T14:18:28.659Z,98396.66
2023-04-12T14:20:57.968Z,98401.91
2023-04-12T14:23:27.615Z,98401.00
2023-04-12T14:25:56.076Z,98393.66
2023-04-12T14:28:29.764Z,98398.66
2023-04-12T14:30:58.370Z,98393.28
2023-04-12T14:33:26.348Z,98394.69
2023-04-12T14:35:54.327Z,98388.00
2023-04-12T14:38:23.031Z,98397.84
2023-04-12T14:40:54.601Z,98393.97
2023-04-12T14:43:22.888Z,98383.22
2023-04-12T14:45:51.186Z,98389.81
2023-04-12T14:48:21.297Z,98378.59
2023-04-12T14:50:49.637Z,98385.75
2023-04-12T14:53:18.969Z,98388.41
2023-04-12T14:55:47.100Z,98382.47
2023-04-12T14:58:15.332Z,98388.56
2023-04-12T15:00:43.280Z,98389.56
2023-04-12T15:03:11.486Z,98383.38
2023-04-12T15:05:39.950Z,98391.00
2023-04-12T15:08:07.886Z,98391.69
2023-04-12T15:10:38.700Z,98390.84
2023-04-12T15:13:08.627Z,98395.00
2023-04-12T15:15:36.622Z,98395.72
2023-04-12T15:18:04.777Z,98392.37
2023-04-12T15:20:33.324Z,98398.59
2023-04-12T15:23:01.349Z,98394.31
2023-04-12T15:25:30.971Z,98386.00
2023-04-12T15:27:59.481Z,98392.63
2023-04-12T15:30:27.989Z,98396.62
2023-04-12T15:32:55.870Z,98393.16
2023-04-12T15:35:27.014Z,98389.72
2023-04-12T15:37:55.744Z,98398.31
2023-04-12T15:40:24.646Z,98398.75
2023-04-12T15:42:52.730Z,98393.13
2023-04-12T15:45:22.360Z,98392.66
2023-04-12T15:47:51.012Z,98395.50
2023-04-12T15:50:19.204Z,98389.78
2023-04-12T15:52:48.721Z,98387.31
2023-04-12T15:55:22.036Z,98390.63
2023-04-12T15:57:49.957Z,98389.88
2023-04-12T16:00:21.416Z,98389.22
2023-04-12T16:02:57.834Z,98388.41
2023-04-12T16:05:26.844Z,98385.31
2023-04-12T16:07:56.829Z,98385.84
2023-04-12T16:10:26.717Z,98388.69
2023-04-12T16:12:56.734Z,98389.78
2023-04-12T16:15:25.089Z,98386.75
2023-04-12T16:17:56.330Z,98381.91
2023-04-12T16:20:24.614Z,98383.22
2023-04-12T16:22:58.297Z,98371.44
2023-04-12T16:25:31.746Z,98370.66
2023-04-12T16:28:02.654Z,98378.78
2023-04-12T16:30:34.236Z,98373.31
2023-04-12T16:33:02.352Z,98373.59
2023-04-12T16:35:31.098Z,98373.94
2023-04-12T16:37:59.005Z,98365.97
2023-04-12T16:40:26.961Z,98370.81
2023-04-12T16:42:55.237Z,98368.88
2023-04-12T16:45:24.111Z,98364.19
2023-04-12T16:47:52.074Z,98363.97
2023-04-12T16:50:22.175Z,98354.81
2023-04-12T16:52:51.930Z,98356.31
2023-04-12T16:55:20.874Z,98364.78
2023-04-12T16:57:53.238Z,98357.47
2023-04-12T17:00:24.739Z,98355.25
2023-04-12T17:02:54.124Z,98358.84
2023-04-12T17:05:23.294Z,98357.22
2023-04-12T17:07:54.285Z,98358.44
2023-04-12T17:10:24.702Z,98364.19
2023-04-12T17:12:54.902Z,98355.06
2023-04-12T17:15:25.542Z,98351.22
2023-04-12T17:17:57.689Z,98360.34
2023-04-12T17:20:26.132Z,98360.69
2023-04-12T17:22:55.211Z,98363.19
2023-04-12T17:25:24.902Z,98368.50
2023-04-12T17:27:54.917Z,98358.50
2023-04-12T17:30:23.735Z,98362.19
2023-04-12T17:32:53.818Z,98361.41
2023-04-12T17:35:22.326Z,98360.25
2023-04-12T17:37:50.235Z,98356.28
2023-04-12T17:40:18.665Z,98354.69
2023-04-12T17:42:46.961Z,98356.94
2023-04-12T17:45:14.984Z,98355.84
2023-04-12T17:47:43.042Z,98352.59
2023-04-12T17:50:12.138Z,98359.12
2023-04-12T17:52:40.157Z,98360.25
2023-04-12T17:55:12.580Z,98357.59
2023-04-12T17:57:41.852Z,98365.66
2023-04-12T18:00:12.005Z,98364.22
2023-04-12T18:02:42.267Z,98362.03
2023-04-12T18:05:14.096Z,98365.62
2023-04-12T18:07:42.806Z,98364.97
2023-04-12T18:10:21.122Z,98365.91
2023-04-12T18:12:51.357Z,98364.06
2023-04-12T18:15:20.421Z,98371.03
2023-04-12T18:17:52.125Z,98367.59
2023-04-12T18:20:21.559Z,98360.38
2023-04-12T18:22:49.483Z,98367.94
2023-04-12T18:25:17.394Z,98368.28
2023-04-12T18:27:48.699Z,98364.31
2023-04-12T18:30:19.122Z,98370.56
2023-04-12T18:32:48.144Z,98360.19
2023-04-12T18:35:16.363Z,98370.44
2023-04-12T18:37:44.607Z,98372.22
2023-04-12T18:40:13.497Z,98372.34
2023-04-12T18:42:45.837Z,98380.03
2023-04-12T18:45:14.594Z,98374.84
2023-04-12T18:47:42.570Z,98373.06
2023-04-12T18:50:11.703Z,98378.41
2023-04-12T18:52:40.088Z,98380.03
2023-04-12T18:55:08.586Z,98378.47
2023-04-12T18:57:36.691Z,98381.75
2023-04-12T19:00:14.025Z,98383.56
2023-04-12T19:02:41.951Z,98383.69
2023-04-12T19:05:12.747Z,98386.22
2023-04-12T19:07:41.334Z,98387.22
2023-04-12T19:10:09.739Z,98383.75
2023-04-12T19:12:38.423Z,98378.53
2023-04-12T19:15:08.494Z,98383.63
2023-04-12T19:17:39.718Z,98381.19
2023-04-12T19:20:12.101Z,98380.25
2023-04-12T19:22:41.133Z,98380.34
2023-04-12T19:25:10.221Z,98390.59
2023-04-12T19:27:38.888Z,98379.31
2023-04-12T19:30:07.531Z,98392.16
2023-04-12T19:32:35.867Z,98388.84
2023-04-12T19:35:03.974Z,98384.56
2023-04-12T19:37:34.372Z,98388.88
2023-04-12T19:40:02.673Z,98385.41
2023-04-12T19:42:30.896Z,98382.06
2023-04-12T19:45:00.642Z,98382.88
2023-04-12T19:47:29.256Z,98382.84
2023-04-12T19:49:57.406Z,98378.59
2023-04-12T19:52:27.506Z,98371.72
2023-04-12T19:54:57.471Z,98371.75
2023-04-12T19:57:27.819Z,98376.94
2023-04-12T19:59:56.131Z,98378.63
2023-04-12T20:02:24.802Z,98373.53
2023-04-12T20:04:53.653Z,98366.69
2023-04-12T20:07:21.655Z,98364.88
2023-04-12T20:09:50.032Z,98368.38
2023-04-12T20:12:19.435Z,98370.09
2023-04-12T20:14:47.333Z,98360.69
2023-04-12T20:17:15.391Z,98367.53
2023-04-12T20:19:43.729Z,98364.09
2023-04-12T20:22:12.613Z,98359.81
2023-04-12T20:24:40.585Z,98352.94
2023-04-12T20:27:09.725Z,98353.81
2023-04-12T20:29:37.795Z,98348.63
2023-04-12T20:32:05.875Z,98352.91
2023-04-12T20:34:34.464Z,98355.53
2023-04-12T20:37:02.360Z,98358.97
2023-04-12T20:39:30.946Z,98359.81
2023-04-12T20:42:01.365Z,98363.25
2023-04-12T20:44:29.311Z,98352.94
2023-04-12T20:46:57.834Z,98346.06
2023-04-12T20:49:28.125Z,98342.66
2023-04-12T20:51:59.361Z,98344.31
2023-04-12T20:54:30.296Z,98343.50
2023-04-12T20:57:00.156Z,98334.91
2023-04-12T20:59:30.454Z,98332.28
2023-04-12T21:01:59.257Z,98337.47
2023-04-12T21:04:28.032Z,98333.19
2023-04-12T21:06:57.677Z,98334.06
2023-04-12T21:09:25.691Z,98331.47
2023-04-12T21:11:53.787Z,98332.34
2023-04-12T21:14:22.059Z,98328.94
2023-04-12T21:16:50.095Z,98332.34
2023-04-12T21:19:18.617Z,98328.91
2023-04-12T21:21:47.358Z,98329.75
2023-04-12T21:24:15.414Z,98334.06
2023-04-12T21:26:43.812Z,98322.91
2023-04-12T21:29:12.083Z,98328.91
2023-04-12T21:31:41.852Z,98325.47
2023-04-12T21:34:10.375Z,98322.84
2023-04-12T21:36:38.904Z,98317.69
2023-04-12T21:39:10.652Z,98319.38
2023-04-12T21:41:38.992Z,98309.81
2023-04-12T21:44:07.467Z,98313.28
2023-04-12T21:46:35.776Z,98311.44
2023-04-12T21:49:05.245Z,98313.97
2023-04-12T21:51:33.333Z,98314.94
2023-04-12T21:54:01.334Z,98315.00
2023-04-12T21:56:29.597Z,98311.59
2023-04-12T21:59:00.031Z,98301.31
2023-04-12T22:01:28.136Z,98292.69
2023-04-12T22:03:57.446Z,98294.22
2023-04-12T22:06:25.529Z,98290.81
2023-04-12T22:08:53.976Z,98297.75
2023-04-12T22:11:22.275Z,98295.94
2023-04-12T22:13:50.415Z,98285.75
2023-04-12T22:16:18.292Z,98289.22
2023-04-12T22:18:47.093Z,98283.97
2023-04-12T22:21:15.510Z,98279.56
2023-04-12T22:23:44.050Z,98287.16
2023-04-12T22:26:13.614Z,98286.41
2023-04-12T22:28:42.819Z,98289.03
2023-04-12T22:31:14.688Z,98285.13
2023-04-12T22:33:43.964Z,98281.31
2023-04-12T22:36:11.924Z,98287.00
2023-04-12T22:38:40.357Z,98275.19
2023-04-12T22:41:08.629Z,98285.44
2023-04-12T22:43:43.110Z,98282.72
2023-04-12T22:46:18.902Z,98275.81
2023-04-12T22:48:50.112Z,98268.06
2023-04-12T22:51:18.401Z,98275.62
2023-04-12T22:53:46.368Z,98278.25
2023-04-12T22:56:14.359Z,98281.53
2023-04-12T22:58:43.335Z,98282.19
2023-04-12T23:01:11.277Z,98270.06
2023-04-12T23:03:41.798Z,98271.66
2023-04-12T23:06:13.001Z,98272.41
2023-04-12T23:08:41.008Z,98277.63
2023-04-12T23:11:09.284Z,98274.81
2023-04-12T23:13:37.322Z,98278.59
2023-04-12T23:16:07.220Z,98269.22
2023-04-12T23:18:36.109Z,98264.28
2023-04-12T23:21:04.150Z,98270.13
2023-04-12T23:23:32.074Z,98266.53
2023-04-12T23:26:01.172Z,98260.41
2023-04-12T23:28:29.327Z,98265.53
2023-04-12T23:30:58.049Z,98254.87
2023-04-12T23:33:26.417Z,98258.25
2023-04-12T23:35:56.274Z,98256.97
2023-04-12T23:38:26.331Z,98246.47
2023-04-12T23:40:54.696Z,98255.09
2023-04-12T23:43:23.524Z,98246.28
2023-04-12T23:45:55.604Z,98246.00
2023-04-12T23:48:24.616Z,98247.87
2023-04-12T23:50:52.501Z,98245.00
2023-04-12T23:53:21.209Z,98241.03
2023-04-12T23:55:52.094Z,98243.19
2023-04-12T23:58:20.982Z,98243.19
